sensor_id;sensor_type;location;lat;lon;timestamp;pressure;altitude;pressure_sealevel;temperature;humidity
85105;BME280;75457;53.198;45.008;2024-01-30T00:04:51;101146.22;;;2.91;52.62
85105;BME280;75457;53.198;45.008;2024-01-30T00:07:17;101153.13;;;3.00;52.76
85105;BME280;75457;53.198;45.008;2024-01-30T00:09:42;101165.09;;;3.11;51.97
85105;BME280;75457;53.198;45.008;2024-01-30T00:12:08;101179.91;;;3.26;52.24
85105;BME280;75457;53.198;45.008;2024-01-30T00:14:33;101188.94;;;3.14;51.51
85105;BME280;75457;53.198;45.008;2024-01-30T00:17:00;101162.88;;;3.01;51.77
85105;BME280;75457;53.198;45.008;2024-01-30T00:19:26;101136.59;;;2.93;52.37
85105;BME280;75457;53.198;45.008;2024-01-30T00:21:51;101130.91;;;2.98;52.10
85105;BME280;75457;53.198;45.008;2024-01-30T00:24:17;101122.69;;;3.10;52.55
85105;BME280;75457;53.198;45.008;2024-01-30T00:26:43;101120.69;;;3.07;52.36
85105;BME280;75457;53.198;45.008;2024-01-30T00:29:08;101125.91;;;3.00;52.62
85105;BME280;75457;53.198;45.008;2024-01-30T00:31:35;101125.75;;;2.81;52.64
85105;BME280;75457;53.198;45.008;2024-01-30T00:34:01;101114.88;;;2.69;53.06
85105;BME280;75457;53.198;45.008;2024-01-30T00:36:27;101111.53;;;2.48;52.47
85105;BME280;75457;53.198;45.008;2024-01-30T00:38:53;101112.44;;;2.40;52.87
85105;BME280;75457;53.198;45.008;2024-01-30T00:41:18;101099.31;;;2.42;53.08
85105;BME280;75457;53.198;45.008;2024-01-30T00:43:44;101088.91;;;2.32;52.39
85105;BME280;75457;53.198;45.008;2024-01-30T00:46:09;101068.31;;;2.19;53.54
85105;BME280;75457;53.198;45.008;2024-01-30T00:48:35;101063.66;;;2.20;52.54
85105;BME280;75457;53.198;45.008;2024-01-30T00:51:02;101061.97;;;2.15;53.22
85105;BME280;75457;53.198;45.008;2024-01-30T00:53:28;101066.63;;;2.03;52.89
85105;BME280;75457;53.198;45.008;2024-01-30T00:55:53;101074.53;;;2.08;52.87
85105;BME280;75457;53.198;45.008;2024-01-30T00:58:19;101050.09;;;1.96;53.81
85105;BME280;75457;53.198;45.008;2024-01-30T01:00:44;101042.53;;;2.01;53.42
85105;BME280;75457;53.198;45.008;2024-01-30T01:03:10;101032.91;;;2.04;52.97
85105;BME280;75457;53.198;45.008;2024-01-30T01:05:35;101051.34;;;1.98;52.95
85105;BME280;75457;53.198;45.008;2024-01-30T01:08:03;101042.75;;;1.84;52.85
85105;BME280;75457;53.198;45.008;2024-01-30T01:10:28;101045.47;;;1.72;53.28
85105;BME280;75457;53.198;45.008;2024-01-30T01:12:54;101034.03;;;1.79;53.83
85105;BME280;75457;53.198;45.008;2024-01-30T01:15:19;101029.59;;;1.86;52.92
85105;BME280;75457;53.198;45.008;2024-01-30T01:17:45;101015.69;;;1.76;54.04
85105;BME280;75457;53.198;45.008;2024-01-30T01:20:11;101017.16;;;1.73;53.75
85105;BME280;75457;53.198;45.008;2024-01-30T01:22:37;101007.78;;;1.83;53.32
85105;BME280;75457;53.198;45.008;2024-01-30T01:25:05;101003.94;;;1.72;53.31
85105;BME280;75457;53.198;45.008;2024-01-30T01:27:31;100993.16;;;1.75;53.74
85105;BME280;75457;53.198;45.008;2024-01-30T01:29:56;100975.31;;;1.62;53.47
85105;BME280;75457;53.198;45.008;2024-01-30T01:32:22;100984.81;;;1.68;53.65
85105;BME280;75457;53.198;45.008;2024-01-30T01:34:47;100991.97;;;1.73;53.14
85105;BME280;75457;53.198;45.008;2024-01-30T01:37:13;100986.28;;;1.78;53.24
85105;BME280;75457;53.198;45.008;2024-01-30T01:39:38;100988.31;;;1.81;53.44
85105;BME280;75457;53.198;45.008;2024-01-30T01:42:05;100999.72;;;1.86;53.70
85105;BME280;75457;53.198;45.008;2024-01-30T01:44:31;100991.69;;;1.90;53.02
85105;BME280;75457;53.198;45.008;2024-01-30T01:46:56;100973.28;;;1.83;53.15
85105;BME280;75457;53.198;45.008;2024-01-30T01:49:24;100965.22;;;1.87;53.13
85105;BME280;75457;53.198;45.008;2024-01-30T01:51:51;100953.56;;;1.86;53.24
85105;BME280;75457;53.198;45.008;2024-01-30T01:54:18;100960.16;;;1.73;52.95
85105;BME280;75457;53.198;45.008;2024-01-30T01:56:44;100958.13;;;1.70;53.60
85105;BME280;75457;53.198;45.008;2024-01-30T01:59:11;100948.16;;;1.62;53.89
85105;BME280;75457;53.198;45.008;2024-01-30T02:01:37;100930.75;;;1.51;54.30
85105;BME280;75457;53.198;45.008;2024-01-30T02:04:03;100904.47;;;1.79;53.58
85105;BME280;75457;53.198;45.008;2024-01-30T02:06:28;100902.03;;;2.02;53.08
85105;BME280;75457;53.198;45.008;2024-01-30T02:08:54;100895.13;;;2.04;52.37
85105;BME280;75457;53.198;45.008;2024-01-30T02:11:20;100893.06;;;2.13;51.98
85105;BME280;75457;53.198;45.008;2024-01-30T02:13:45;100905.31;;;2.07;52.13
85105;BME280;75457;53.198;45.008;2024-01-30T02:16:12;100916.66;;;1.97;52.40
85105;BME280;75457;53.198;45.008;2024-01-30T02:18:38;100904.44;;;1.91;53.51
85105;BME280;75457;53.198;45.008;2024-01-30T02:21:06;100909.13;;;1.79;53.58
85105;BME280;75457;53.198;45.008;2024-01-30T02:23:32;100917.03;;;1.72;54.02
85105;BME280;75457;53.198;45.008;2024-01-30T02:25:58;100912.97;;;1.54;53.71
85105;BME280;75457;53.198;45.008;2024-01-30T02:28:24;100926.34;;;1.35;54.03
85105;BME280;75457;53.198;45.008;2024-01-30T02:30:50;100916.28;;;1.11;54.69
85105;BME280;75457;53.198;45.008;2024-01-30T02:33:15;100910.66;;;1.16;54.30
85105;BME280;75457;53.198;45.008;2024-01-30T02:35:41;100914.72;;;1.22;53.81
85105;BME280;75457;53.198;45.008;2024-01-30T02:38:08;100902.25;;;1.09;54.56
85105;BME280;75457;53.198;45.008;2024-01-30T02:40:33;100920.34;;;0.93;54.67
85105;BME280;75457;53.198;45.008;2024-01-30T02:42:59;100908.63;;;0.69;55.25
85105;BME280;75457;53.198;45.008;2024-01-30T02:45:25;100942.31;;;0.68;55.33
85105;BME280;75457;53.198;45.008;2024-01-30T02:47:52;100909.31;;;0.66;55.41
85105;BME280;75457;53.198;45.008;2024-01-30T02:50:17;100902.09;;;0.82;55.31
85105;BME280;75457;53.198;45.008;2024-01-30T02:52:43;100916.69;;;0.89;54.55
85105;BME280;75457;53.198;45.008;2024-01-30T02:55:10;100927.78;;;0.96;54.79
85105;BME280;75457;53.198;45.008;2024-01-30T02:57:36;100916.94;;;1.08;54.65
85105;BME280;75457;53.198;45.008;2024-01-30T03:00:02;100923.97;;;1.21;54.26
85105;BME280;75457;53.198;45.008;2024-01-30T03:02:27;100921.72;;;1.23;53.90
85105;BME280;75457;53.198;45.008;2024-01-30T03:04:53;100911.31;;;1.13;54.09
85105;BME280;75457;53.198;45.008;2024-01-30T03:07:18;100915.72;;;1.18;54.21
85105;BME280;75457;53.198;45.008;2024-01-30T03:09:44;100916.06;;;1.16;54.34
85105;BME280;75457;53.198;45.008;2024-01-30T03:12:11;100909.72;;;1.00;54.99
85105;BME280;75457;53.198;45.008;2024-01-30T03:14:37;100906.56;;;0.98;55.19
85105;BME280;75457;53.198;45.008;2024-01-30T03:17:02;100913.69;;;1.03;54.83
85105;BME280;75457;53.198;45.008;2024-01-30T03:19:28;100903.84;;;1.10;54.33
85105;BME280;75457;53.198;45.008;2024-01-30T03:21:54;100906.53;;;0.86;55.26
85105;BME280;75457;53.198;45.008;2024-01-30T03:24:19;100905.63;;;0.82;55.29
85105;BME280;75457;53.198;45.008;2024-01-30T03:26:45;100905.53;;;0.91;54.85
85105;BME280;75457;53.198;45.008;2024-01-30T03:29:12;100910.84;;;0.87;55.16
85105;BME280;75457;53.198;45.008;2024-01-30T03:31:38;100896.91;;;0.89;54.91
85105;BME280;75457;53.198;45.008;2024-01-30T03:34:03;100902.50;;;1.16;54.21
85105;BME280;75457;53.198;45.008;2024-01-30T03:36:29;100894.13;;;1.09;54.21
85105;BME280;75457;53.198;45.008;2024-01-30T03:38:54;100892.28;;;0.89;54.69
85105;BME280;75457;53.198;45.008;2024-01-30T03:41:20;100866.97;;;0.73;55.50
85105;BME280;75457;53.198;45.008;2024-01-30T03:43:46;100851.63;;;0.89;55.13
85105;BME280;75457;53.198;45.008;2024-01-30T03:46:14;100846.41;;;0.96;54.80
85105;BME280;75457;53.198;45.008;2024-01-30T03:48:39;100847.56;;;0.95;54.98
85105;BME280;75457;53.198;45.008;2024-01-30T03:51:04;100841.00;;;0.84;54.39
85105;BME280;75457;53.198;45.008;2024-01-30T03:53:30;100848.47;;;0.75;54.53
85105;BME280;75457;53.198;45.008;2024-01-30T03:55:56;100839.41;;;0.71;55.27
85105;BME280;75457;53.198;45.008;2024-01-30T03:58:21;100849.34;;;0.79;54.97
85105;BME280;75457;53.198;45.008;2024-01-30T04:00:46;100848.53;;;0.55;55.37
85105;BME280;75457;53.198;45.008;2024-01-30T04:03:13;100847.38;;;0.44;55.40
85105;BME280;75457;53.198;45.008;2024-01-30T04:05:39;100857.97;;;0.37;56.27
85105;BME280;75457;53.198;45.008;2024-01-30T04:08:05;100866.06;;;0.57;55.38
85105;BME280;75457;53.198;45.008;2024-01-30T04:10:31;100856.91;;;0.74;55.64
85105;BME280;75457;53.198;45.008;2024-01-30T04:12:56;100871.00;;;0.55;55.40
85105;BME280;75457;53.198;45.008;2024-01-30T04:15:22;100876.69;;;0.74;55.21
85105;BME280;75457;53.198;45.008;2024-01-30T04:17:48;100858.38;;;0.71;55.43
85105;BME280;75457;53.198;45.008;2024-01-30T04:20:15;100843.94;;;0.79;55.35
85105;BME280;75457;53.198;45.008;2024-01-30T04:22:42;100853.78;;;0.96;54.91
85105;BME280;75457;53.198;45.008;2024-01-30T04:25:07;100847.56;;;1.07;54.29
85105;BME280;75457;53.198;45.008;2024-01-30T04:27:33;100845.97;;;0.94;54.85
85105;BME280;75457;53.198;45.008;2024-01-30T04:29:58;100842.94;;;0.96;54.50
85105;BME280;75457;53.198;45.008;2024-01-30T04:32:24;100844.19;;;0.98;54.25
85105;BME280;75457;53.198;45.008;2024-01-30T04:34:49;100846.09;;;1.10;54.50
85105;BME280;75457;53.198;45.008;2024-01-30T04:37:16;100839.63;;;1.14;54.73
85105;BME280;75457;53.198;45.008;2024-01-30T04:39:42;100845.66;;;1.08;54.46
85105;BME280;75457;53.198;45.008;2024-01-30T04:42:08;100834.09;;;0.99;54.69
85105;BME280;75457;53.198;45.008;2024-01-30T04:44:33;100835.56;;;1.08;54.11
85105;BME280;75457;53.198;45.008;2024-01-30T04:46:59;100839.97;;;1.01;54.46
85105;BME280;75457;53.198;45.008;2024-01-30T04:49:24;100835.25;;;0.86;55.00
85105;BME280;75457;53.198;45.008;2024-01-30T04:51:50;100842.81;;;0.80;54.88
85105;BME280;75457;53.198;45.008;2024-01-30T04:54:17;100854.78;;;0.79;55.55
85105;BME280;75457;53.198;45.008;2024-01-30T04:56:42;100850.25;;;0.83;55.19
85105;BME280;75457;53.198;45.008;2024-01-30T04:59:07;100844.28;;;0.90;54.29
85105;BME280;75457;53.198;45.008;2024-01-30T05:01:33;100842.94;;;0.84;54.67
85105;BME280;75457;53.198;45.008;2024-01-30T05:03:59;100849.94;;;0.97;54.81
85105;BME280;75457;53.198;45.008;2024-01-30T05:06:24;100850.50;;;0.90;54.76
85105;BME280;75457;53.198;45.008;2024-01-30T05:08:50;100838.50;;;0.91;54.75
85105;BME280;75457;53.198;45.008;2024-01-30T05:11:17;100831.84;;;1.01;54.49
85105;BME280;75457;53.198;45.008;2024-01-30T05:13:42;100833.66;;;0.85;54.71
85105;BME280;75457;53.198;45.008;2024-01-30T05:16:08;100824.72;;;0.72;55.45
85105;BME280;75457;53.198;45.008;2024-01-30T05:18:34;100825.41;;;0.93;54.66
85105;BME280;75457;53.198;45.008;2024-01-30T05:20:59;100821.25;;;0.96;54.28
85105;BME280;75457;53.198;45.008;2024-01-30T05:23:25;100820.56;;;0.87;54.73
85105;BME280;75457;53.198;45.008;2024-01-30T05:25:50;100821.34;;;0.99;54.55
85105;BME280;75457;53.198;45.008;2024-01-30T05:28:17;100821.56;;;1.06;54.95
85105;BME280;75457;53.198;45.008;2024-01-30T05:30:43;100829.38;;;1.08;54.62
85105;BME280;75457;53.198;45.008;2024-01-30T05:33:08;100824.38;;;1.10;54.54
85105;BME280;75457;53.198;45.008;2024-01-30T05:35:34;100835.25;;;0.98;54.53
85105;BME280;75457;53.198;45.008;2024-01-30T05:37:59;100836.03;;;1.10;54.94
85105;BME280;75457;53.198;45.008;2024-01-30T05:40:25;100818.75;;;1.03;54.67
85105;BME280;75457;53.198;45.008;2024-01-30T05:42:50;100824.41;;;0.98;54.96
85105;BME280;75457;53.198;45.008;2024-01-30T05:45:17;100819.78;;;0.98;54.69
85105;BME280;75457;53.198;45.008;2024-01-30T05:47:43;100824.50;;;0.89;55.31
85105;BME280;75457;53.198;45.008;2024-01-30T05:50:09;100823.16;;;1.07;54.25
85105;BME280;75457;53.198;45.008;2024-01-30T05:52:34;100827.66;;;1.15;54.87
85105;BME280;75457;53.198;45.008;2024-01-30T05:55:00;100832.63;;;1.25;53.88
85105;BME280;75457;53.198;45.008;2024-01-30T05:57:26;100837.25;;;1.13;53.96
85105;BME280;75457;53.198;45.008;2024-01-30T05:59:51;100831.03;;;0.64;55.07
85105;BME280;75457;53.198;45.008;2024-01-30T06:02:18;100837.16;;;0.85;55.54
85105;BME280;75457;53.198;45.008;2024-01-30T06:04:44;100829.59;;;0.91;55.16
85105;BME280;75457;53.198;45.008;2024-01-30T06:07:09;100832.97;;;1.00;54.89
85105;BME280;75457;53.198;45.008;2024-01-30T06:09:35;100828.25;;;1.09;54.64
85105;BME280;75457;53.198;45.008;2024-01-30T06:12:00;100836.91;;;1.26;54.46
85105;BME280;75457;53.198;45.008;2024-01-30T06:14:26;100835.78;;;1.15;54.62
85105;BME280;75457;53.198;45.008;2024-01-30T06:16:52;100825.88;;;0.95;55.15
85105;BME280;75457;53.198;45.008;2024-01-30T06:19:19;100820.31;;;0.92;55.45
85105;BME280;75457;53.198;45.008;2024-01-30T06:21:44;100814.56;;;1.05;55.43
85105;BME280;75457;53.198;45.008;2024-01-30T06:24:10;100809.31;;;1.36;54.57
85105;BME280;75457;53.198;45.008;2024-01-30T06:26:36;100802.31;;;1.35;55.00
85105;BME280;75457;53.198;45.008;2024-01-30T06:29:01;100806.66;;;1.00;54.95
85105;BME280;75457;53.198;45.008;2024-01-30T06:31:27;100805.53;;;0.89;55.74
85105;BME280;75457;53.198;45.008;2024-01-30T06:33:53;100797.16;;;0.94;55.53
85105;BME280;75457;53.198;45.008;2024-01-30T06:36:19;100794.03;;;0.80;56.01
85105;BME280;75457;53.198;45.008;2024-01-30T06:38:45;100793.53;;;0.78;55.67
85105;BME280;75457;53.198;45.008;2024-01-30T06:41:11;100785.50;;;0.94;55.56
85105;BME280;75457;53.198;45.008;2024-01-30T06:43:36;100795.81;;;1.00;55.64
85105;BME280;75457;53.198;45.008;2024-01-30T06:46:02;100798.28;;;1.05;55.58
85105;BME280;75457;53.198;45.008;2024-01-30T06:48:27;100794.34;;;1.03;55.51
85105;BME280;75457;53.198;45.008;2024-01-30T06:50:53;100788.66;;;1.20;55.71
85105;BME280;75457;53.198;45.008;2024-01-30T06:53:20;100809.44;;;1.28;55.22
85105;BME280;75457;53.198;45.008;2024-01-30T06:55:45;100800.03;;;1.37;55.85
85105;BME280;75457;53.198;45.008;2024-01-30T06:58:11;100798.91;;;1.38;55.38
85105;BME280;75457;53.198;45.008;2024-01-30T07:00:37;100785.44;;;1.42;55.56
85105;BME280;75457;53.198;45.008;2024-01-30T07:03:03;100789.16;;;1.49;54.84
85105;BME280;75457;53.198;45.008;2024-01-30T07:05:28;100781.22;;;1.56;55.28
85105;BME280;75457;53.198;45.008;2024-01-30T07:07:54;100785.16;;;1.59;55.41
85105;BME280;75457;53.198;45.008;2024-01-30T07:10:21;100768.31;;;1.65;54.95
85105;BME280;75457;53.198;45.008;2024-01-30T07:12:47;100783.41;;;1.78;54.23
85105;BME280;75457;53.198;45.008;2024-01-30T07:15:13;100774.25;;;1.98;54.57
85105;BME280;75457;53.198;45.008;2024-01-30T07:17:39;100779.25;;;1.96;54.08
85105;BME280;75457;53.198;45.008;2024-01-30T07:20:06;100780.88;;;1.85;55.18
85105;BME280;75457;53.198;45.008;2024-01-30T07:22:33;100777.69;;;1.95;54.81
85105;BME280;75457;53.198;45.008;2024-01-30T07:24:58;100776.28;;;2.01;54.30
85105;BME280;75457;53.198;45.008;2024-01-30T07:27:25;100767.72;;;1.99;54.58
85105;BME280;75457;53.198;45.008;2024-01-30T07:29:51;100779.22;;;2.24;53.84
85105;BME280;75457;53.198;45.008;2024-01-30T07:32:22;100773.25;;;2.18;54.08
85105;BME280;75457;53.198;45.008;2024-01-30T07:34:47;100780.34;;;2.07;54.09
85105;BME280;75457;53.198;45.008;2024-01-30T07:37:13;100785.97;;;1.87;54.47
85105;BME280;75457;53.198;45.008;2024-01-30T07:39:39;100798.78;;;1.74;55.11
85105;BME280;75457;53.198;45.008;2024-01-30T07:42:04;100759.59;;;1.60;55.79
85105;BME280;75457;53.198;45.008;2024-01-30T07:44:31;100764.44;;;1.39;56.26
85105;BME280;75457;53.198;45.008;2024-01-30T07:46:57;100754.72;;;1.38;56.18
85105;BME280;75457;53.198;45.008;2024-01-30T07:49:22;100752.09;;;1.41;56.71
85105;BME280;75457;53.198;45.008;2024-01-30T07:51:48;100756.00;;;1.56;55.94
85105;BME280;75457;53.198;45.008;2024-01-30T07:54:13;100758.13;;;1.62;55.76
85105;BME280;75457;53.198;45.008;2024-01-30T07:56:39;100743.34;;;1.75;55.30
85105;BME280;75457;53.198;45.008;2024-01-30T07:59:05;100743.19;;;1.84;56.13
85105;BME280;75457;53.198;45.008;2024-01-30T08:01:32;100737.69;;;1.80;56.51
85105;BME280;75457;53.198;45.008;2024-01-30T08:03:57;100716.03;;;1.84;55.95
85105;BME280;75457;53.198;45.008;2024-01-30T08:06:23;100725.16;;;1.91;56.10
85105;BME280;75457;53.198;45.008;2024-01-30T08:08:48;100717.28;;;2.02;56.24
85105;BME280;75457;53.198;45.008;2024-01-30T08:11:14;100705.03;;;2.08;55.85
85105;BME280;75457;53.198;45.008;2024-01-30T08:13:39;100715.31;;;2.14;55.68
85105;BME280;75457;53.198;45.008;2024-01-30T08:16:05;100692.69;;;2.10;55.69
85105;BME280;75457;53.198;45.008;2024-01-30T08:18:32;100700.75;;;2.22;55.77
85105;BME280;75457;53.198;45.008;2024-01-30T08:20:58;100692.88;;;2.17;55.32
85105;BME280;75457;53.198;45.008;2024-01-30T08:23:23;100669.53;;;2.01;55.67
85105;BME280;75457;53.198;45.008;2024-01-30T08:25:49;100660.97;;;2.14;55.58
85105;BME280;75457;53.198;45.008;2024-01-30T08:28:14;100670.41;;;2.36;55.87
85105;BME280;75457;53.198;45.008;2024-01-30T08:30:40;100689.53;;;2.39;55.81
85105;BME280;75457;53.198;45.008;2024-01-30T08:33:06;100680.22;;;2.56;55.86
85105;BME280;75457;53.198;45.008;2024-01-30T08:35:33;100670.22;;;2.44;55.42
85105;BME280;75457;53.198;45.008;2024-01-30T08:37:58;100669.09;;;2.30;56.80
85105;BME280;75457;53.198;45.008;2024-01-30T08:40:24;100675.25;;;2.27;55.97
85105;BME280;75457;53.198;45.008;2024-01-30T08:42:49;100671.63;;;2.38;56.02
85105;BME280;75457;53.198;45.008;2024-01-30T08:45:15;100670.84;;;2.38;56.67
85105;BME280;75457;53.198;45.008;2024-01-30T08:47:40;100662.34;;;2.39;56.75
85105;BME280;75457;53.198;45.008;2024-01-30T08:50:07;100676.38;;;2.41;56.61
85105;BME280;75457;53.198;45.008;2024-01-30T08:52:34;100672.88;;;2.41;56.52
85105;BME280;75457;53.198;45.008;2024-01-30T08:55:00;100689.69;;;2.31;56.40
85105;BME280;75457;53.198;45.008;2024-01-30T08:57:25;100689.34;;;2.32;55.92
85105;BME280;75457;53.198;45.008;2024-01-30T08:59:51;100671.06;;;2.29;55.86
85105;BME280;75457;53.198;45.008;2024-01-30T09:02:16;100658.31;;;2.33;56.63
85105;BME280;75457;53.198;45.008;2024-01-30T09:04:42;100664.91;;;2.32;56.52
85105;BME280;75457;53.198;45.008;2024-01-30T09:07:09;100665.25;;;2.31;56.69
85105;BME280;75457;53.198;45.008;2024-01-30T09:09:37;100665.31;;;2.50;56.06
85105;BME280;75457;53.198;45.008;2024-01-30T09:12:03;100667.84;;;2.43;56.14
85105;BME280;75457;53.198;45.008;2024-01-30T09:14:29;100673.06;;;2.32;56.49
85105;BME280;75457;53.198;45.008;2024-01-30T09:16:54;100676.19;;;2.34;56.50
85105;BME280;75457;53.198;45.008;2024-01-30T09:19:20;100671.47;;;2.31;57.01
85105;BME280;75457;53.198;45.008;2024-01-30T09:21:45;100665.78;;;2.36;56.45
85105;BME280;75457;53.198;45.008;2024-01-30T09:24:11;100663.38;;;2.50;56.03
85105;BME280;75457;53.198;45.008;2024-01-30T09:26:38;100646.19;;;2.46;55.89
85105;BME280;75457;53.198;45.008;2024-01-30T09:29:03;100641.72;;;2.54;56.23
85105;BME280;75457;53.198;45.008;2024-01-30T09:31:29;100642.84;;;2.87;56.23
85105;BME280;75457;53.198;45.008;2024-01-30T09:33:54;100634.19;;;3.01;56.20
85105;BME280;75457;53.198;45.008;2024-01-30T09:36:20;100632.22;;;2.98;56.03
85105;BME280;75457;53.198;45.008;2024-01-30T09:38:46;100631.13;;;3.02;55.85
85105;BME280;75457;53.198;45.008;2024-01-30T09:41:12;100627.53;;;3.17;56.57
85105;BME280;75457;53.198;45.008;2024-01-30T09:43:39;100623.00;;;3.44;56.22
85105;BME280;75457;53.198;45.008;2024-01-30T09:46:05;100632.03;;;3.48;55.74
85105;BME280;75457;53.198;45.008;2024-01-30T09:48:32;100629.94;;;3.41;55.87
85105;BME280;75457;53.198;45.008;2024-01-30T09:50:59;100626.09;;;3.23;56.00
85105;BME280;75457;53.198;45.008;2024-01-30T09:53:25;100620.81;;;3.30;55.85
85105;BME280;75457;53.198;45.008;2024-01-30T09:55:51;100620.81;;;3.30;56.52
85105;BME280;75457;53.198;45.008;2024-01-30T09:58:16;100621.53;;;3.27;56.02
85105;BME280;75457;53.198;45.008;2024-01-30T10:00:43;100617.78;;;3.16;56.06
85105;BME280;75457;53.198;45.008;2024-01-30T10:03:09;100612.72;;;3.15;57.02
85105;BME280;75457;53.198;45.008;2024-01-30T10:05:35;100614.13;;;3.09;56.54
85105;BME280;75457;53.198;45.008;2024-01-30T10:08:01;100614.72;;;2.99;57.21
85105;BME280;75457;53.198;45.008;2024-01-30T10:10:30;100617.66;;;2.90;57.47
85105;BME280;75457;53.198;45.008;2024-01-30T10:12:56;100620.81;;;2.92;57.29
85105;BME280;75457;53.198;45.008;2024-01-30T10:15:22;100610.94;;;3.03;56.40
85105;BME280;75457;53.198;45.008;2024-01-30T10:17:49;100612.28;;;3.13;56.74
85105;BME280;75457;53.198;45.008;2024-01-30T10:20:15;100609.53;;;3.32;55.96
85105;BME280;75457;53.198;45.008;2024-01-30T10:22:40;100598.25;;;3.52;55.78
85105;BME280;75457;53.198;45.008;2024-01-30T10:25:06;100606.31;;;3.45;56.83
85105;BME280;75457;53.198;45.008;2024-01-30T10:27:32;100598.94;;;3.27;57.07
85105;BME280;75457;53.198;45.008;2024-01-30T10:29:58;100603.47;;;3.19;56.96
85105;BME280;75457;53.198;45.008;2024-01-30T10:32:23;100602.03;;;3.06;57.18
85105;BME280;75457;53.198;45.008;2024-01-30T10:34:52;100599.59;;;3.20;56.63
85105;BME280;75457;53.198;45.008;2024-01-30T10:37:19;100594.13;;;3.39;56.23
85105;BME280;75457;53.198;45.008;2024-01-30T10:39:46;100600.16;;;3.48;56.62
85105;BME280;75457;53.198;45.008;2024-01-30T10:42:13;100577.81;;;3.39;57.01
85105;BME280;75457;53.198;45.008;2024-01-30T10:44:54;100579.72;;;3.39;57.45
85105;BME280;75457;53.198;45.008;2024-01-30T10:47:26;100570.56;;;3.47;56.80
85105;BME280;75457;53.198;45.008;2024-01-30T10:49:54;100564.56;;;3.60;57.25
85105;BME280;75457;53.198;45.008;2024-01-30T10:52:21;100576.13;;;3.76;56.46
85105;BME280;75457;53.198;45.008;2024-01-30T10:54:49;100582.00;;;3.78;56.15
85105;BME280;75457;53.198;45.008;2024-01-30T10:57:15;100577.50;;;3.67;57.09
85105;BME280;75457;53.198;45.008;2024-01-30T10:59:41;100582.78;;;3.79;56.41
85105;BME280;75457;53.198;45.008;2024-01-30T11:02:07;100585.16;;;3.80;56.67
85105;BME280;75457;53.198;45.008;2024-01-30T11:04:36;100592.47;;;3.76;56.49
85105;BME280;75457;53.198;45.008;2024-01-30T11:07:14;100595.63;;;3.78;57.04
85105;BME280;75457;53.198;45.008;2024-01-30T11:09:39;100596.09;;;3.84;56.38
85105;BME280;75457;53.198;45.008;2024-01-30T11:12:05;100602.09;;;3.70;56.30
85105;BME280;75457;53.198;45.008;2024-01-30T11:14:31;100600.94;;;3.71;57.28
85105;BME280;75457;53.198;45.008;2024-01-30T11:16:57;100600.53;;;3.69;56.64
85105;BME280;75457;53.198;45.008;2024-01-30T11:19:23;100597.84;;;3.50;57.92
85105;BME280;75457;53.198;45.008;2024-01-30T11:21:50;100589.97;;;3.45;57.20
85105;BME280;75457;53.198;45.008;2024-01-30T11:24:18;100594.03;;;3.55;57.24
85105;BME280;75457;53.198;45.008;2024-01-30T11:26:44;100603.06;;;3.59;57.30
85105;BME280;75457;53.198;45.008;2024-01-30T11:29:13;100614.31;;;3.57;57.32
85105;BME280;75457;53.198;45.008;2024-01-30T11:31:39;100609.88;;;3.49;58.17
85105;BME280;75457;53.198;45.008;2024-01-30T11:34:05;100611.88;;;3.52;57.40
85105;BME280;75457;53.198;45.008;2024-01-30T11:36:32;100615.34;;;3.49;58.34
85105;BME280;75457;53.198;45.008;2024-01-30T11:39:00;100610.34;;;3.32;58.55
85105;BME280;75457;53.198;45.008;2024-01-30T11:41:27;100618.44;;;3.29;58.44
85105;BME280;75457;53.198;45.008;2024-01-30T11:43:53;100622.53;;;3.19;59.23
85105;BME280;75457;53.198;45.008;2024-01-30T11:46:19;100618.66;;;3.20;58.82
85105;BME280;75457;53.198;45.008;2024-01-30T11:48:44;100615.75;;;3.10;59.41
85105;BME280;75457;53.198;45.008;2024-01-30T11:51:12;100615.81;;;3.13;59.62
85105;BME280;75457;53.198;45.008;2024-01-30T11:53:38;100615.88;;;3.17;59.47
85105;BME280;75457;53.198;45.008;2024-01-30T11:56:06;100615.88;;;3.17;59.20
85105;BME280;75457;53.198;45.008;2024-01-30T11:58:33;100616.38;;;3.22;59.75
85105;BME280;75457;53.198;45.008;2024-01-30T12:00:58;100613.41;;;3.31;58.91
85105;BME280;75457;53.198;45.008;2024-01-30T12:03:24;100601.16;;;3.40;58.45
85105;BME280;75457;53.198;45.008;2024-01-30T12:05:55;100608.25;;;3.26;59.96
85105;BME280;75457;53.198;45.008;2024-01-30T12:08:21;100609.28;;;3.18;58.85
85105;BME280;75457;53.198;45.008;2024-01-30T12:10:55;100616.81;;;3.24;60.07
85105;BME280;75457;53.198;45.008;2024-01-30T12:13:21;100617.38;;;3.14;59.66
85105;BME280;75457;53.198;45.008;2024-01-30T12:15:48;100616.56;;;3.14;60.34
85105;BME280;75457;53.198;45.008;2024-01-30T12:18:13;100626.69;;;3.13;59.66
85105;BME280;75457;53.198;45.008;2024-01-30T12:20:39;100627.47;;;3.14;60.18
85105;BME280;75457;53.198;45.008;2024-01-30T12:23:04;100619.44;;;3.21;60.08
85105;BME280;75457;53.198;45.008;2024-01-30T12:25:30;100615.94;;;3.20;59.46
85105;BME280;75457;53.198;45.008;2024-01-30T12:27:56;100623.66;;;3.18;60.04
85105;BME280;75457;53.198;45.008;2024-01-30T12:30:22;100629.34;;;3.29;59.39
85105;BME280;75457;53.198;45.008;2024-01-30T12:32:50;100635.41;;;3.41;59.35
85105;BME280;75457;53.198;45.008;2024-01-30T12:35:17;100634.41;;;3.49;59.59
85105;BME280;75457;53.198;45.008;2024-01-30T12:37:44;100637.66;;;3.58;59.40
85105;BME280;75457;53.198;45.008;2024-01-30T12:40:11;100633.66;;;3.52;59.29
85105;BME280;75457;53.198;45.008;2024-01-30T12:42:37;100634.97;;;3.39;60.13
85105;BME280;75457;53.198;45.008;2024-01-30T12:45:03;100631.09;;;3.40;60.01
85105;BME280;75457;53.198;45.008;2024-01-30T12:47:29;100635.84;;;3.43;60.09